Nearby METAR Reports

 

KPLU - Puyallup/Thun, Washington, USA
Distance from station: SSW 10mi, 16km
Updated: Wed, 30-Nov-2022 1:15am PST
Light drizzle, Mostly cloudy
Light drizzle, Mostly cloudy
 Wind from S
Wind: S 12 mph , 19 km/h, Gust: 21 mph , 33 km/h
Temperature: 41°F , 5°C
Wind Chill: 34°F , 1°C
Dew Point: 39°F , 4°C
Humidity: 93%
Barometer: 29.42 inHg , 996.3 hPa
Summary: Light Drizzle
Clouds: Mostly cloudy
Visibility: 8 miles , 13 km
Cloud details: Few Clouds 1500 ft
Partly cloudy 2800 ft
Mostly cloudy 3500 ft
2022/11/30 09:15 KPLU 300915Z AUTO 19010G18KT 8SM -DZ FEW015 SCT028 BKN035 05/04 A2942 RMK AO2
KTCM - Tacoma/Mc Chord, Washington, USA
Distance from station: SW 15mi, 24km
Updated: Wed, 30-Nov-2022 1:28am PST
Light rain, Overcast
Light rain, Overcast
 Wind from S
Wind: S 18 mph , 30 km/h, Gust: 24 mph , 39 km/h
Temperature: 41°F , 5°C
Wind Chill: 32°F , 0°C
Dew Point: 41°F , 5°C
Humidity: 100%
Barometer: 29.41 inHg , 995.9 hPa
Summary: Light rain
Clouds: Overcast
Visibility: 10 miles , 16 km
Cloud details: Overcast 3900 ft
2022/11/30 09:28 KTCM 300928Z AUTO 17016G21KT 10SM -RA OVC039 05/05 A2941 RMK AO2 RAB28 SLP965 $
 
KSEA - Seattle/Metro, Washington, USA
Distance from station: NNW 16mi, 25km
Updated: Wed, 30-Nov-2022 12:53am PST
Light rain, Mist, Overcast
Light rain, Mist, Overcast
 Wind from ESE
Wind: ESE 13 mph , 20 km/h, Gust: 24 mph , 39 km/h
Temperature: 36°F , 2°C
Wind Chill: 27°F , -3°C
Dew Point: 34°F , 1°C
Humidity: 93%
Barometer: 29.43 inHg , 996.6 hPa
Summary: Light rain, Mist
Clouds: Overcast
Visibility: 6 miles , 10 km
Cloud details: Overcast 1500 ft
2022/11/30 08:53 KSEA 300853Z 12011G21KT 6SM -RA BR OVC015 02/01 A2943 RMK AO2 RAB03SNE03 SLP977 P0018 60065 T00170006 58039
KRNT - Renton, Washington, USA
Distance from station: N 18mi, 29km
Updated: Wed, 30-Nov-2022 12:53am PST
Light rain, Mist, Overcast
Light rain, Mist, Overcast
 Wind from ESE
Wind: ESE 9 mph , 15 km/h
Temperature: 36°F , 2°C
Wind Chill: 29°F , -2°C
Dew Point: 32°F , 0°C
Humidity: 87%
Barometer: 29.46 inHg , 997.6 hPa
Summary: Light rain, Mist
Clouds: Overcast
Visibility: 6 miles , 10 km
Cloud details: Overcast 1900 ft
2022/11/30 08:53 KRNT 300853Z 12008KT 6SM -RA BR OVC019 02/00 A2946 RMK AO2 RAB0754SNE0754 SLP980 P0017 60049 T00170000 58028
 
KTIW - Tacoma, Washington, USA
Distance from station: W 18mi, 29km
Updated: Wed, 30-Nov-2022 1:06am PST
Light rain, Overcast
Light rain, Overcast
 Wind from S
Wind: S 15 mph , 24 km/h, Gust: 33 mph , 54 km/h
Temperature: 43°F , 6°C
Wind Chill: 36°F , 2°C
Dew Point: 37°F , 3°C
Humidity: 81%
Barometer: 29.41 inHg , 995.9 hPa
Summary: Light rain
Clouds: Overcast
Cloud details: Partly cloudy 1700 ft
Mostly cloudy 3400 ft
Overcast 4400 ft
2022/11/30 09:06 KTIW 300906Z AUTO 18013G29KT -RA SCT017 BKN034 OVC044 06/03 A2941 RMK AO2 PK WND 16030/0855 RAB05 P0000 T00560033 $
KGRF - Fort Lewis/Gray, Washington, USA
Distance from station: SW 21mi, 33km
Updated: Wed, 30-Nov-2022 12:55am PST
Light rain, Overcast
Light rain, Overcast
 Wind from SE
Wind: SE 12 mph , 19 km/h, Gust: 17 mph , 28 km/h
Temperature: 41°F , 5°C
Wind Chill: 34°F , 1°C
Dew Point: 37°F , 3°C
Humidity: 87%
Barometer: 29.40 inHg , 995.6 hPa
Summary: Light rain
Clouds: Overcast
Visibility: 6 miles , 10 km
Cloud details: Overcast 2400 ft
2022/11/30 08:55 KGRF 300855Z 14010G15KT 6SM -RA OVC024 05/03 A2940 RMK PK WIND 125/32 SLPNO 60033 RVRNO $
 
KBFI - Seattle/Boeing, Washington, USA
Distance from station: NNW 22mi, 36km
Updated: Wed, 30-Nov-2022 12:53am PST
Light rain, Mist, Overcast
Light rain, Mist, Overcast
 Wind from SE
Wind: SE 13 mph , 20 km/h
Temperature: 34°F , 1°C
Wind Chill: 25°F , -4°C
Dew Point: 34°F , 1°C
Humidity: 100%
Barometer: 29.45 inHg , 997.3 hPa
Summary: Light rain, Mist
Clouds: Overcast
Visibility: 6 miles , 10 km
Cloud details: Few Clouds 1400 ft
Overcast 2000 ft
2022/11/30 08:53 KBFI 300853Z 13011KT 6SM -RA BR FEW014 OVC020 01/01 A2945 RMK AO2 UPB14E31B40E42RAB42SNE14B31E40 SLP972 P0016 60058 T00110006 56029
KPWT - Bremerton Ntnl, Washington, USA
Distance from station: NW 31mi, 50km
Updated: Wed, 30-Nov-2022 12:56am PST
Mist, Overcast
Mist, Overcast
 Wind from SSW
Wind: SSW 3 mph , 6 km/h
Temperature: 36°F , 2°C
Dew Point: 34°F , 1°C
Humidity: 93%
Barometer: 29.43 inHg , 996.6 hPa
Summary: Mist
Clouds: Overcast
Visibility: 4 miles , 6 km
Cloud details: Overcast 600 ft
2022/11/30 08:56 KPWT 300856Z AUTO 21003KT 4SM UP BR OVC006 02/01 A2943 RMK AO2 UPB0758SNE0758B09E20 CIG 004V010 SLP974 P0033 60043 T00170011 56028 FZRANO
 
KOLM - Olympia, Washington, USA
Distance from station: WSW 38mi, 60km
Updated: Wed, 30-Nov-2022 1:18am PST
Light rain, Mist, Overcast
Light rain, Mist, Overcast
 Wind from W
Wind: W 10 mph , 17 km/h, Gust: 25 mph , 41 km/h
Temperature: 41°F , 5°C
Wind Chill: 35°F , 2°C
Dew Point: 39°F , 4°C
Humidity: 93%
Barometer: 29.45 inHg , 997.3 hPa
Summary: Light rain, Mist
Clouds: Overcast
Visibility: 5 miles , 8 km
Cloud details: Mostly cloudy 1000 ft
Mostly cloudy 1500 ft
Overcast 3200 ft
2022/11/30 09:18 KOLM 300918Z AUTO 26009G22KT 5SM -RA BR BKN010 BKN015 OVC032 05/04 A2945 RMK AO2 PK WND 17029/0857 PRESRR P0002 T00500039
KSMP - Stampede Pass, Washington, USA
Distance from station: E 41mi, 66km
Updated: Wed, 30-Nov-2022 1:22am PST
Snow, Freezing, Fog, Overcast
Snow, Freezing, Fog, Overcast
 
Temperature: 16°F , -9°C
Dew Point: 12°F , -11°C
Humidity: 86%
Barometer: 29.44 inHg , 997 hPa
Summary: Snow, Freezing, Fog
Clouds: Overcast
Visibility: 1/4 mile , 0.4 km
Cloud details: Overcast 400 ft
2022/11/30 09:22 KSMP 300922Z AUTO 1/4SM SN FZFG VV004 M09/M11 A2944 RMK AO2 P0003 T10891111
 
KSHN - Shelton, Washington, USA
Distance from station: W 43mi, 70km
Updated: Wed, 30-Nov-2022 12:53am PST
Light rain, Mist, Overcast
Light rain, Mist, Overcast
 Wind from NNE
Wind: NNE 5 mph , 7 km/h
Temperature: 34°F , 1°C
Wind Chill: 29°F , -2°C
Dew Point: 34°F , 1°C
Humidity: 100%
Barometer: 29.41 inHg , 995.9 hPa
Summary: Light rain, Mist
Clouds: Overcast
Visibility: 6 miles , 10 km
Cloud details: Partly cloudy 1000 ft
Mostly cloudy 2100 ft
Overcast 4200 ft
2022/11/30 08:53 KSHN 300853Z AUTO 02004KT 6SM -RA BR SCT010 BKN021 OVC042 01/01 A2941 RMK AO2 UPB05E07 SLP964 P0014 60056 I3001 T00060006 56035
KPAE - Everett, Washington, USA
Distance from station: N 47mi, 76km
Updated: Wed, 30-Nov-2022 12:53am PST
Light snow, Mist, Overcast
Light snow, Mist, Overcast
 Wind from SSE
Wind: SSE 16 mph , 26 km/h, Gust: 25 mph , 41 km/h
Temperature: 34°F , 1°C
Wind Chill: 24°F , -4°C
Dew Point: 30°F , -1°C
Humidity: 87%
Barometer: 29.44 inHg , 997 hPa
Summary: Light snow, Mist
Clouds: Overcast
Visibility: 1 mile , 2 km
Cloud details: Mostly cloudy 400 ft
Overcast 800 ft
2022/11/30 08:53 KPAE 300853Z AUTO 15014G22KT 1SM R16R/P6000FT -SN BR BKN004 OVC008 01/M01 A2944 RMK AO2 SLP973 P0003 60010 T00061006 58030